sensor_id;sensor_type;location;lat;lon;timestamp;pressure;altitude;pressure_sealevel;temperature;humidity
48630;BME280;34426;52.180;4.462;2024-01-16T00:01:48;101053.00;;;2.51;77.79
48630;BME280;34426;52.180;4.462;2024-01-16T00:04:14;101046.44;;;2.52;77.95
48630;BME280;34426;52.180;4.462;2024-01-16T00:06:39;101064.28;;;2.56;78.37
48630;BME280;34426;52.180;4.462;2024-01-16T00:09:05;101058.13;;;2.54;79.96
48630;BME280;34426;52.180;4.462;2024-01-16T00:11:31;101050.03;;;2.53;79.55
48630;BME280;34426;52.180;4.462;2024-01-16T00:13:57;101061.94;;;2.53;84.15
48630;BME280;34426;52.180;4.462;2024-01-16T00:16:22;101089.91;;;2.37;92.78
48630;BME280;34426;52.180;4.462;2024-01-16T00:18:48;101058.25;;;2.26;97.83
48630;BME280;34426;52.180;4.462;2024-01-16T00:21:13;101063.13;;;2.18;100.00
48630;BME280;34426;52.180;4.462;2024-01-16T00:23:38;101058.22;;;2.07;100.00
48630;BME280;34426;52.180;4.462;2024-01-16T00:26:04;101067.72;;;1.97;100.00
48630;BME280;34426;52.180;4.462;2024-01-16T00:28:32;101081.69;;;1.89;100.00
48630;BME280;34426;52.180;4.462;2024-01-16T00:30:57;101062.16;;;1.84;100.00
48630;BME280;34426;52.180;4.462;2024-01-16T00:33:23;101073.56;;;1.75;100.00
48630;BME280;34426;52.180;4.462;2024-01-16T00:35:48;101062.97;;;1.72;100.00
48630;BME280;34426;52.180;4.462;2024-01-16T00:38:13;101063.38;;;1.69;100.00
48630;BME280;34426;52.180;4.462;2024-01-16T00:40:39;101050.84;;;1.66;100.00
48630;BME280;34426;52.180;4.462;2024-01-16T00:43:04;101048.31;;;1.64;100.00
48630;BME280;34426;52.180;4.462;2024-01-16T00:45:31;101051.91;;;1.65;99.70
48630;BME280;34426;52.180;4.462;2024-01-16T00:47:57;101053.63;;;1.66;99.75
48630;BME280;34426;52.180;4.462;2024-01-16T00:50:22;101053.22;;;1.69;98.98
48630;BME280;34426;52.180;4.462;2024-01-16T00:52:48;101058.94;;;1.67;98.94
48630;BME280;34426;52.180;4.462;2024-01-16T00:55:13;101066.34;;;1.67;99.23
48630;BME280;34426;52.180;4.462;2024-01-16T00:57:38;101062.09;;;1.64;99.06
48630;BME280;34426;52.180;4.462;2024-01-16T01:00:06;101078.63;;;1.64;98.99
48630;BME280;34426;52.180;4.462;2024-01-16T01:02:33;101088.41;;;1.74;97.40
48630;BME280;34426;52.180;4.462;2024-01-16T01:04:58;101103.84;;;1.61;100.00
48630;BME280;34426;52.180;4.462;2024-01-16T01:07:24;101124.63;;;1.29;100.00
48630;BME280;34426;52.180;4.462;2024-01-16T01:09:49;101131.03;;;1.09;100.00
48630;BME280;34426;52.180;4.462;2024-01-16T01:12:15;101137.47;;;0.94;100.00
48630;BME280;34426;52.180;4.462;2024-01-16T01:14:40;101126.94;;;0.77;100.00
48630;BME280;34426;52.180;4.462;2024-01-16T01:17:06;101121.72;;;0.60;100.00
48630;BME280;34426;52.180;4.462;2024-01-16T01:19:33;101095.09;;;0.46;100.00
48630;BME280;34426;52.180;4.462;2024-01-16T01:21:58;101094.19;;;0.39;100.00
48630;BME280;34426;52.180;4.462;2024-01-16T01:24:23;101081.63;;;0.30;100.00
48630;BME280;34426;52.180;4.462;2024-01-16T01:26:49;101078.97;;;0.22;100.00
48630;BME280;34426;52.180;4.462;2024-01-16T01:29:14;101078.13;;;0.21;100.00
48630;BME280;34426;52.180;4.462;2024-01-16T01:31:40;101081.34;;;0.25;100.00
48630;BME280;34426;52.180;4.462;2024-01-16T01:34:05;101080.97;;;0.28;100.00
48630;BME280;34426;52.180;4.462;2024-01-16T01:36:32;101074.94;;;0.39;100.00
48630;BME280;34426;52.180;4.462;2024-01-16T01:38:58;101070.19;;;0.54;100.00
48630;BME280;34426;52.180;4.462;2024-01-16T01:41:23;101066.97;;;0.72;100.00
48630;BME280;34426;52.180;4.462;2024-01-16T01:43:48;101078.53;;;0.89;100.00
48630;BME280;34426;52.180;4.462;2024-01-16T01:46:16;101076.50;;;0.97;100.00
48630;BME280;34426;52.180;4.462;2024-01-16T01:48:43;101078.66;;;1.02;100.00
48630;BME280;34426;52.180;4.462;2024-01-16T01:51:09;101067.88;;;1.07;100.00
48630;BME280;34426;52.180;4.462;2024-01-16T01:53:36;101062.56;;;1.06;100.00
48630;BME280;34426;52.180;4.462;2024-01-16T01:56:04;101052.81;;;1.03;100.00
48630;BME280;34426;52.180;4.462;2024-01-16T01:58:30;101057.03;;;0.99;100.00
48630;BME280;34426;52.180;4.462;2024-01-16T02:00:55;101058.91;;;0.98;100.00
48630;BME280;34426;52.180;4.462;2024-01-16T02:03:22;101051.91;;;0.96;100.00
48630;BME280;34426;52.180;4.462;2024-01-16T02:05:49;101061.22;;;0.95;100.00
48630;BME280;34426;52.180;4.462;2024-01-16T02:08:15;101062.47;;;0.92;100.00
48630;BME280;34426;52.180;4.462;2024-01-16T02:10:42;101061.81;;;0.90;100.00
48630;BME280;34426;52.180;4.462;2024-01-16T02:13:10;101062.88;;;0.89;100.00
48630;BME280;34426;52.180;4.462;2024-01-16T02:15:36;101056.50;;;0.82;100.00
48630;BME280;34426;52.180;4.462;2024-01-16T02:18:01;101054.81;;;0.88;100.00
48630;BME280;34426;52.180;4.462;2024-01-16T02:20:26;101064.13;;;0.87;100.00
48630;BME280;34426;52.180;4.462;2024-01-16T02:22:53;101047.44;;;0.95;100.00
48630;BME280;34426;52.180;4.462;2024-01-16T02:25:22;101045.16;;;0.98;100.00
48630;BME280;34426;52.180;4.462;2024-01-16T02:27:48;101049.16;;;0.96;100.00
48630;BME280;34426;52.180;4.462;2024-01-16T02:30:13;101040.53;;;1.06;100.00
48630;BME280;34426;52.180;4.462;2024-01-16T02:32:39;101037.19;;;1.10;100.00
48630;BME280;34426;52.180;4.462;2024-01-16T02:35:04;101045.66;;;1.09;100.00
48630;BME280;34426;52.180;4.462;2024-01-16T02:37:30;101045.91;;;1.14;100.00
48630;BME280;34426;52.180;4.462;2024-01-16T02:39:55;101044.50;;;1.24;100.00
48630;BME280;34426;52.180;4.462;2024-01-16T02:42:22;101044.75;;;1.29;100.00
48630;BME280;34426;52.180;4.462;2024-01-16T02:44:49;101046.44;;;1.37;100.00
48630;BME280;34426;52.180;4.462;2024-01-16T02:47:14;101051.19;;;1.50;100.00
48630;BME280;34426;52.180;4.462;2024-01-16T02:49:40;101056.13;;;1.61;100.00
48630;BME280;34426;52.180;4.462;2024-01-16T02:52:05;101046.81;;;1.62;100.00
48630;BME280;34426;52.180;4.462;2024-01-16T02:54:30;101049.38;;;1.63;100.00
48630;BME280;34426;52.180;4.462;2024-01-16T02:56:56;101048.91;;;1.60;100.00
48630;BME280;34426;52.180;4.462;2024-01-16T02:59:23;101038.31;;;1.57;100.00
48630;BME280;34426;52.180;4.462;2024-01-16T03:01:48;101038.47;;;1.49;100.00
48630;BME280;34426;52.180;4.462;2024-01-16T03:04:13;101043.75;;;1.44;100.00
48630;BME280;34426;52.180;4.462;2024-01-16T03:06:39;101044.78;;;1.43;100.00
48630;BME280;34426;52.180;4.462;2024-01-16T03:09:04;101041.78;;;1.38;100.00
48630;BME280;34426;52.180;4.462;2024-01-16T03:11:30;101054.59;;;1.52;100.00
48630;BME280;34426;52.180;4.462;2024-01-16T03:13:55;101054.81;;;1.50;100.00
48630;BME280;34426;52.180;4.462;2024-01-16T03:16:22;101057.75;;;1.49;100.00
48630;BME280;34426;52.180;4.462;2024-01-16T03:18:47;101055.63;;;1.44;100.00
48630;BME280;34426;52.180;4.462;2024-01-16T03:21:13;101047.09;;;1.39;100.00
48630;BME280;34426;52.180;4.462;2024-01-16T03:23:39;101058.09;;;1.32;100.00
48630;BME280;34426;52.180;4.462;2024-01-16T03:26:04;101045.78;;;1.28;100.00
48630;BME280;34426;52.180;4.462;2024-01-16T03:28:29;101039.63;;;1.26;100.00
48630;BME280;34426;52.180;4.462;2024-01-16T03:30:55;101030.91;;;1.23;100.00
48630;BME280;34426;52.180;4.462;2024-01-16T03:33:22;101034.31;;;1.25;100.00
48630;BME280;34426;52.180;4.462;2024-01-16T03:35:47;101034.13;;;1.26;100.00
48630;BME280;34426;52.180;4.462;2024-01-16T03:38:13;101033.28;;;1.26;100.00
48630;BME280;34426;52.180;4.462;2024-01-16T03:40:38;101041.75;;;1.31;100.00
48630;BME280;34426;52.180;4.462;2024-01-16T03:43:04;101034.56;;;1.30;100.00
48630;BME280;34426;52.180;4.462;2024-01-16T03:45:29;101042.00;;;1.36;100.00
48630;BME280;34426;52.180;4.462;2024-01-16T03:47:55;101027.59;;;1.41;100.00
48630;BME280;34426;52.180;4.462;2024-01-16T03:50:21;101030.59;;;1.46;100.00
48630;BME280;34426;52.180;4.462;2024-01-16T03:52:47;101033.81;;;1.49;100.00
48630;BME280;34426;52.180;4.462;2024-01-16T03:55:12;101030.84;;;1.51;100.00
48630;BME280;34426;52.180;4.462;2024-01-16T03:57:38;101030.41;;;1.47;100.00
48630;BME280;34426;52.180;4.462;2024-01-16T04:00:04;101020.41;;;1.40;100.00
48630;BME280;34426;52.180;4.462;2024-01-16T04:02:30;101026.72;;;1.33;100.00
48630;BME280;34426;52.180;4.462;2024-01-16T04:04:56;101023.31;;;1.31;100.00
48630;BME280;34426;52.180;4.462;2024-01-16T04:07:23;101021.63;;;1.30;100.00
48630;BME280;34426;52.180;4.462;2024-01-16T04:09:49;101009.78;;;1.30;100.00
48630;BME280;34426;52.180;4.462;2024-01-16T04:12:14;101024.16;;;1.25;100.00
48630;BME280;34426;52.180;4.462;2024-01-16T04:14:40;101021.19;;;1.27;100.00
48630;BME280;34426;52.180;4.462;2024-01-16T04:17:05;101014.84;;;1.26;100.00
48630;BME280;34426;52.180;4.462;2024-01-16T04:19:31;101025.22;;;1.24;100.00
48630;BME280;34426;52.180;4.462;2024-01-16T04:21:56;101018.66;;;1.25;100.00
48630;BME280;34426;52.180;4.462;2024-01-16T04:24:24;101013.13;;;1.25;100.00
48630;BME280;34426;52.180;4.462;2024-01-16T04:26:49;101008.28;;;1.27;100.00
48630;BME280;34426;52.180;4.462;2024-01-16T04:29:15;101004.22;;;1.23;100.00
48630;BME280;34426;52.180;4.462;2024-01-16T04:31:40;100999.81;;;1.29;100.00
48630;BME280;34426;52.180;4.462;2024-01-16T04:34:06;101006.16;;;1.29;100.00
48630;BME280;34426;52.180;4.462;2024-01-16T04:36:32;100998.09;;;1.28;100.00
48630;BME280;34426;52.180;4.462;2024-01-16T04:38:57;100992.16;;;1.24;100.00
48630;BME280;34426;52.180;4.462;2024-01-16T04:41:24;100983.66;;;1.19;100.00
48630;BME280;34426;52.180;4.462;2024-01-16T04:43:50;100988.25;;;1.12;100.00
48630;BME280;34426;52.180;4.462;2024-01-16T04:46:15;100983.41;;;1.14;100.00
48630;BME280;34426;52.180;4.462;2024-01-16T04:48:41;100987.81;;;1.09;100.00
48630;BME280;34426;52.180;4.462;2024-01-16T04:51:06;100990.53;;;1.02;100.00
48630;BME280;34426;52.180;4.462;2024-01-16T04:53:32;100985.00;;;1.02;100.00
48630;BME280;34426;52.180;4.462;2024-01-16T04:55:57;100984.38;;;1.00;100.00
48630;BME280;34426;52.180;4.462;2024-01-16T04:58:24;100981.22;;;1.03;100.00
48630;BME280;34426;52.180;4.462;2024-01-16T05:00:50;100996.28;;;1.07;100.00
48630;BME280;34426;52.180;4.462;2024-01-16T05:03:15;100987.66;;;1.17;100.00
48630;BME280;34426;52.180;4.462;2024-01-16T05:05:41;100983.88;;;1.24;100.00
48630;BME280;34426;52.180;4.462;2024-01-16T05:08:06;100979.88;;;1.27;100.00
48630;BME280;34426;52.180;4.462;2024-01-16T05:10:32;100979.69;;;1.35;100.00
48630;BME280;34426;52.180;4.462;2024-01-16T05:12:57;100971.63;;;1.33;100.00
48630;BME280;34426;52.180;4.462;2024-01-16T05:15:24;100974.19;;;1.42;100.00
48630;BME280;34426;52.180;4.462;2024-01-16T05:17:49;100968.09;;;1.53;96.95
48630;BME280;34426;52.180;4.462;2024-01-16T05:20:15;100963.88;;;1.57;95.09
48630;BME280;34426;52.180;4.462;2024-01-16T05:22:40;100965.00;;;1.69;90.87
48630;BME280;34426;52.180;4.462;2024-01-16T05:25:07;100958.63;;;1.75;89.94
48630;BME280;34426;52.180;4.462;2024-01-16T05:27:32;100965.19;;;1.74;89.24
48630;BME280;34426;52.180;4.462;2024-01-16T05:29:58;100958.00;;;1.73;88.68
48630;BME280;34426;52.180;4.462;2024-01-16T05:32:25;100959.06;;;1.72;88.25
48630;BME280;34426;52.180;4.462;2024-01-16T05:34:50;100961.16;;;1.77;85.10
48630;BME280;34426;52.180;4.462;2024-01-16T05:37:15;100963.06;;;1.76;85.10
48630;BME280;34426;52.180;4.462;2024-01-16T05:39:41;100954.38;;;1.79;84.34
48630;BME280;34426;52.180;4.462;2024-01-16T05:42:07;100959.91;;;1.86;84.12
48630;BME280;34426;52.180;4.462;2024-01-16T05:44:32;100959.25;;;1.77;84.20
48630;BME280;34426;52.180;4.462;2024-01-16T05:46:58;100952.69;;;1.78;83.79
48630;BME280;34426;52.180;4.462;2024-01-16T05:49:24;100962.66;;;1.79;84.25
48630;BME280;34426;52.180;4.462;2024-01-16T05:51:50;100955.25;;;1.73;85.00
48630;BME280;34426;52.180;4.462;2024-01-16T05:54:15;100953.97;;;1.69;84.35
48630;BME280;34426;52.180;4.462;2024-01-16T05:56:41;100948.66;;;1.74;83.72
48630;BME280;34426;52.180;4.462;2024-01-16T05:59:06;100948.22;;;1.77;82.59
48630;BME280;34426;52.180;4.462;2024-01-16T06:01:32;100951.41;;;1.81;81.86
48630;BME280;34426;52.180;4.462;2024-01-16T06:03:57;100954.81;;;1.83;81.05
48630;BME280;34426;52.180;4.462;2024-01-16T06:06:24;100951.22;;;1.89;80.30
48630;BME280;34426;52.180;4.462;2024-01-16T06:08:49;100941.25;;;1.88;81.22
48630;BME280;34426;52.180;4.462;2024-01-16T06:11:15;100947.63;;;1.88;81.78
48630;BME280;34426;52.180;4.462;2024-01-16T06:13:41;100938.28;;;1.83;82.10
48630;BME280;34426;52.180;4.462;2024-01-16T06:16:06;100948.88;;;1.79;82.74
48630;BME280;34426;52.180;4.462;2024-01-16T06:18:32;100943.34;;;1.79;82.79
48630;BME280;34426;52.180;4.462;2024-01-16T06:20:57;100948.25;;;1.84;81.54
48630;BME280;34426;52.180;4.462;2024-01-16T06:23:24;100947.22;;;1.91;80.35
48630;BME280;34426;52.180;4.462;2024-01-16T06:25:49;100950.19;;;1.90;79.94
48630;BME280;34426;52.180;4.462;2024-01-16T06:28:15;100948.47;;;1.89;80.60
48630;BME280;34426;52.180;4.462;2024-01-16T06:30:40;100950.59;;;1.87;81.41
48630;BME280;34426;52.180;4.462;2024-01-16T06:33:06;100945.94;;;1.87;80.94
48630;BME280;34426;52.180;4.462;2024-01-16T06:35:31;100946.34;;;1.84;81.03
48630;BME280;34426;52.180;4.462;2024-01-16T06:37:57;100952.50;;;1.86;79.87
48630;BME280;34426;52.180;4.462;2024-01-16T06:40:23;100947.84;;;1.87;79.66
48630;BME280;34426;52.180;4.462;2024-01-16T06:42:49;100948.03;;;1.85;80.16
48630;BME280;34426;52.180;4.462;2024-01-16T06:45:14;100944.88;;;1.88;79.93
48630;BME280;34426;52.180;4.462;2024-01-16T06:47:40;100941.25;;;1.88;80.54
48630;BME280;34426;52.180;4.462;2024-01-16T06:50:06;100945.50;;;1.90;80.06
48630;BME280;34426;52.180;4.462;2024-01-16T06:52:32;100951.03;;;1.90;80.56
48630;BME280;34426;52.180;4.462;2024-01-16T06:54:57;100944.25;;;1.93;80.41
48630;BME280;34426;52.180;4.462;2024-01-16T06:57:24;100948.50;;;1.95;80.33
48630;BME280;34426;52.180;4.462;2024-01-16T06:59:50;100944.66;;;1.96;79.99
48630;BME280;34426;52.180;4.462;2024-01-16T07:02:15;100946.59;;;1.96;80.91
48630;BME280;34426;52.180;4.462;2024-01-16T07:04:41;100948.50;;;1.95;80.79
48630;BME280;34426;52.180;4.462;2024-01-16T07:07:06;100950.19;;;1.96;80.44
48630;BME280;34426;52.180;4.462;2024-01-16T07:09:31;100954.00;;;1.95;81.01
48630;BME280;34426;52.180;4.462;2024-01-16T07:11:57;100956.75;;;1.95;80.84
48630;BME280;34426;52.180;4.462;2024-01-16T07:14:24;100961.44;;;1.95;81.58
48630;BME280;34426;52.180;4.462;2024-01-16T07:16:49;100961.63;;;1.93;81.16
48630;BME280;34426;52.180;4.462;2024-01-16T07:19:15;100967.56;;;1.90;81.50
48630;BME280;34426;52.180;4.462;2024-01-16T07:21:40;100966.31;;;1.93;81.62
48630;BME280;34426;52.180;4.462;2024-01-16T07:24:06;100972.25;;;1.96;81.04
48630;BME280;34426;52.180;4.462;2024-01-16T07:26:31;100964.63;;;1.98;80.69
48630;BME280;34426;52.180;4.462;2024-01-16T07:28:57;100968.03;;;2.00;80.72
48630;BME280;34426;52.180;4.462;2024-01-16T07:31:25;100963.56;;;1.99;80.63
48630;BME280;34426;52.180;4.462;2024-01-16T07:33:50;100968.03;;;2.00;79.65
48630;BME280;34426;52.180;4.462;2024-01-16T07:36:16;100958.69;;;2.02;78.51
48630;BME280;34426;52.180;4.462;2024-01-16T07:38:42;100961.25;;;2.03;78.21
48630;BME280;34426;52.180;4.462;2024-01-16T07:41:07;100965.91;;;2.03;79.31
48630;BME280;34426;52.180;4.462;2024-01-16T07:43:33;100978.63;;;2.04;79.97
48630;BME280;34426;52.180;4.462;2024-01-16T07:45:58;100971.41;;;2.03;80.49
48630;BME280;34426;52.180;4.462;2024-01-16T07:48:25;100973.13;;;2.04;79.81
48630;BME280;34426;52.180;4.462;2024-01-16T07:50:50;100983.31;;;2.03;78.81
48630;BME280;34426;52.180;4.462;2024-01-16T07:53:16;100973.34;;;2.02;78.83
48630;BME280;34426;52.180;4.462;2024-01-16T07:55:42;100970.56;;;2.02;78.52
48630;BME280;34426;52.180;4.462;2024-01-16T07:58:07;100975.25;;;2.02;77.21
48630;BME280;34426;52.180;4.462;2024-01-16T08:00:33;100964.22;;;2.02;77.16
48630;BME280;34426;52.180;4.462;2024-01-16T08:02:58;100978.63;;;2.04;77.36
48630;BME280;34426;52.180;4.462;2024-01-16T08:05:25;100982.47;;;2.03;77.10
48630;BME280;34426;52.180;4.462;2024-01-16T08:07:51;100984.56;;;2.00;77.26
48630;BME280;34426;52.180;4.462;2024-01-16T08:10:16;100975.25;;;2.02;77.68
48630;BME280;34426;52.180;4.462;2024-01-16T08:12:42;100979.91;;;2.01;76.61
48630;BME280;34426;52.180;4.462;2024-01-16T08:15:08;100968.44;;;1.97;77.93
48630;BME280;34426;52.180;4.462;2024-01-16T08:17:33;100975.00;;;1.96;77.37
48630;BME280;34426;52.180;4.462;2024-01-16T08:19:58;100973.97;;;1.97;77.23
48630;BME280;34426;52.180;4.462;2024-01-16T08:22:25;100977.78;;;1.96;75.72
48630;BME280;34426;52.180;4.462;2024-01-16T08:24:51;100971.00;;;1.99;75.47
48630;BME280;34426;52.180;4.462;2024-01-16T08:27:18;100974.59;;;1.99;74.69
48630;BME280;34426;52.180;4.462;2024-01-16T08:29:44;100970.13;;;1.98;73.40
48630;BME280;34426;52.180;4.462;2024-01-16T08:32:09;100964.63;;;1.98;73.40
48630;BME280;34426;52.180;4.462;2024-01-16T08:34:35;100964.22;;;2.02;73.86
48630;BME280;34426;52.180;4.462;2024-01-16T08:37:00;100978.63;;;2.04;74.58
48630;BME280;34426;52.180;4.462;2024-01-16T08:39:28;100967.19;;;2.07;73.74
48630;BME280;34426;52.180;4.462;2024-01-16T08:41:54;100983.75;;;2.07;72.37
48630;BME280;34426;52.180;4.462;2024-01-16T08:44:19;100976.53;;;2.06;69.46
48630;BME280;34426;52.180;4.462;2024-01-16T08:46:45;100981.63;;;2.09;69.14
48630;BME280;34426;52.180;4.462;2024-01-16T08:49:10;100976.09;;;2.09;68.99
48630;BME280;34426;52.180;4.462;2024-01-16T08:51:36;100969.13;;;2.13;70.87
48630;BME280;34426;52.180;4.462;2024-01-16T08:54:01;100968.91;;;2.14;70.63
48630;BME280;34426;52.180;4.462;2024-01-16T08:56:28;100964.84;;;2.17;70.39
48630;BME280;34426;52.180;4.462;2024-01-16T08:58:53;100968.44;;;2.17;69.92
48630;BME280;34426;52.180;4.462;2024-01-16T09:01:19;100978.22;;;2.20;70.21
48630;BME280;34426;52.180;4.462;2024-01-16T09:03:44;100968.88;;;2.21;70.57
48630;BME280;34426;52.180;4.462;2024-01-16T09:06:10;100970.59;;;2.22;70.76
48630;BME280;34426;52.180;4.462;2024-01-16T09:08:35;100975.69;;;2.25;69.60
48630;BME280;34426;52.180;4.462;2024-01-16T09:11:01;100981.00;;;2.26;68.97
48630;BME280;34426;52.180;4.462;2024-01-16T09:13:27;100981.84;;;2.27;68.26
48630;BME280;34426;52.180;4.462;2024-01-16T09:15:53;100979.09;;;2.27;67.51
48630;BME280;34426;52.180;4.462;2024-01-16T09:18:18;100969.31;;;2.31;67.86
48630;BME280;34426;52.180;4.462;2024-01-16T09:20:44;100976.13;;;2.35;68.37
48630;BME280;34426;52.180;4.462;2024-01-16T09:23:10;100983.34;;;2.36;67.34
48630;BME280;34426;52.180;4.462;2024-01-16T09:25:35;100968.91;;;2.34;65.71
48630;BME280;34426;52.180;4.462;2024-01-16T09:28:01;100973.56;;;2.33;65.37
48630;BME280;34426;52.180;4.462;2024-01-16T09:30:28;100974.41;;;2.34;66.19
48630;BME280;34426;52.180;4.462;2024-01-16T09:32:53;100973.78;;;2.32;66.47
48630;BME280;34426;52.180;4.462;2024-01-16T09:35:19;100979.09;;;2.27;65.33
48630;BME280;34426;52.180;4.462;2024-01-16T09:37:44;100986.94;;;2.23;64.71
48630;BME280;34426;52.180;4.462;2024-01-16T09:40:10;100982.47;;;2.22;65.27
48630;BME280;34426;52.180;4.462;2024-01-16T09:42:36;100978.22;;;2.26;66.72
48630;BME280;34426;52.180;4.462;2024-01-16T09:45:02;100981.84;;;2.27;66.59
48630;BME280;34426;52.180;4.462;2024-01-16T09:47:30;100969.09;;;2.26;67.52
48630;BME280;34426;52.180;4.462;2024-01-16T09:49:57;100971.00;;;2.25;67.71
48630;BME280;34426;52.180;4.462;2024-01-16T09:52:22;100969.75;;;2.28;68.81
48630;BME280;34426;52.180;4.462;2024-01-16T09:54:48;100957.88;;;2.34;69.12
48630;BME280;34426;52.180;4.462;2024-01-16T09:57:14;100963.59;;;2.32;68.19
48630;BME280;34426;52.180;4.462;2024-01-16T09:59:41;100960.19;;;2.37;66.98
48630;BME280;34426;52.180;4.462;2024-01-16T10:02:10;100954.47;;;2.39;65.84
48630;BME280;34426;52.180;4.462;2024-01-16T10:04:38;100953.19;;;2.41;64.66
48630;BME280;34426;52.180;4.462;2024-01-16T10:07:04;100960.41;;;2.49;65.11
48630;BME280;34426;52.180;4.462;2024-01-16T10:09:29;100948.94;;;2.52;64.35
48630;BME280;34426;52.180;4.462;2024-01-16T10:11:55;100948.53;;;2.55;65.20
48630;BME280;34426;52.180;4.462;2024-01-16T10:14:21;100947.66;;;2.61;66.14
48630;BME280;34426;52.180;4.462;2024-01-16T10:16:57;100954.03;;;2.68;65.58
48630;BME280;34426;52.180;4.462;2024-01-16T10:19:22;100962.50;;;2.73;66.04
48630;BME280;34426;52.180;4.462;2024-01-16T10:21:49;100951.03;;;2.70;66.66
48630;BME280;34426;52.180;4.462;2024-01-16T10:24:15;100945.31;;;2.64;65.24
48630;BME280;34426;52.180;4.462;2024-01-16T10:26:41;100956.34;;;2.64;64.54
48630;BME280;34426;52.180;4.462;2024-01-16T10:29:06;100944.66;;;2.62;63.90
48630;BME280;34426;52.180;4.462;2024-01-16T10:31:32;100953.59;;;2.64;65.20
48630;BME280;34426;52.180;4.462;2024-01-16T10:33:57;100940.44;;;2.66;64.83
48630;BME280;34426;52.180;4.462;2024-01-16T10:36:23;100944.25;;;2.72;63.91
48630;BME280;34426;52.180;4.462;2024-01-16T10:38:51;100936.78;;;2.86;63.88
48630;BME280;34426;52.180;4.462;2024-01-16T10:41:17;100949.75;;;2.85;63.94
48630;BME280;34426;52.180;4.462;2024-01-16T10:43:43;100947.63;;;2.81;62.56
48630;BME280;34426;52.180;4.462;2024-01-16T10:46:11;100941.69;;;2.84;62.79
48630;BME280;34426;52.180;4.462;2024-01-16T10:48:36;100941.69;;;2.84;62.72
48630;BME280;34426;52.180;4.462;2024-01-16T10:51:03;100940.19;;;2.88;64.03
48630;BME280;34426;52.180;4.462;2024-01-16T10:53:33;100934.03;;;2.86;65.56
48630;BME280;34426;52.180;4.462;2024-01-16T10:56:01;100928.09;;;2.76;66.82
48630;BME280;34426;52.180;4.462;2024-01-16T10:58:29;100932.78;;;2.68;66.76
48630;BME280;34426;52.180;4.462;2024-01-16T11:00:57;100936.84;;;2.59;66.56
48630;BME280;34426;52.180;4.462;2024-01-16T11:03:27;100928.56;;;2.59;66.34
48630;BME280;34426;52.180;4.462;2024-01-16T11:05:57;100923.91;;;2.47;65.38
48630;BME280;34426;52.180;4.462;2024-01-16T11:08:23;100929.63;;;2.45;65.50
48630;BME280;34426;52.180;4.462;2024-01-16T11:10:50;100924.97;;;2.52;65.40
48630;BME280;34426;52.180;4.462;2024-01-16T11:13:18;100918.75;;;2.63;65.15
48630;BME280;34426;52.180;4.462;2024-01-16T11:15:46;100921.50;;;2.83;64.85
48630;BME280;34426;52.180;4.462;2024-01-16T11:18:14;100914.44;;;3.00;66.25
48630;BME280;34426;52.180;4.462;2024-01-16T11:20:41;100908.22;;;3.12;65.88
48630;BME280;34426;52.180;4.462;2024-01-16T11:23:07;100903.31;;;3.20;64.82
48630;BME280;34426;52.180;4.462;2024-01-16T11:25:33;100905.88;;;3.15;63.61
48630;BME280;34426;52.180;4.462;2024-01-16T11:28:08;100904.69;;;2.98;62.27
48630;BME280;34426;52.180;4.462;2024-01-16T11:30:35;100901.31;;;2.83;61.41
48630;BME280;34426;52.180;4.462;2024-01-16T11:33:00;100897.72;;;2.76;61.92
48630;BME280;34426;52.180;4.462;2024-01-16T11:35:32;100896.44;;;2.72;62.96
48630;BME280;34426;52.180;4.462;2024-01-16T11:38:03;100894.50;;;2.92;63.22
48630;BME280;34426;52.180;4.462;2024-01-16T11:40:32;100900.41;;;3.02;64.04
48630;BME280;34426;52.180;4.462;2024-01-16T11:42:58;100900.59;;;3.07;63.21
48630;BME280;34426;52.180;4.462;2024-01-16T11:45:50;100880.31;;;3.26;63.11
48630;BME280;34426;52.180;4.462;2024-01-16T11:48:16;100884.13;;;3.32;62.52
48630;BME280;34426;52.180;4.462;2024-01-16T11:50:42;100889.44;;;3.33;62.28
48630;BME280;34426;52.180;4.462;2024-01-16T11:53:08;100892.69;;;3.17;61.65
48630;BME280;34426;52.180;4.462;2024-01-16T11:55:35;100887.31;;;3.36;61.39
48630;BME280;34426;52.180;4.462;2024-01-16T12:01:03;100875.53;;;3.47;61.56
48630;BME280;34426;52.180;4.462;2024-01-16T12:03:30;100873.88;;;3.46;62.16
48630;BME280;34426;52.180;4.462;2024-01-16T12:05:56;100873.09;;;3.25;63.41
48630;BME280;34426;52.180;4.462;2024-01-16T12:08:22;100876.91;;;3.31;63.22
48630;BME280;34426;52.180;4.462;2024-01-16T12:10:47;100871.34;;;3.38;62.33
48630;BME280;34426;52.180;4.462;2024-01-16T12:13:13;100883.50;;;3.30;61.49
48630;BME280;34426;52.180;4.462;2024-01-16T12:15:40;100870.00;;;3.47;61.92
48630;BME280;34426;52.180;4.462;2024-01-16T12:18:07;100868.22;;;3.59;61.83
48630;BME280;34426;52.180;4.462;2024-01-16T12:20:35;100860.63;;;3.48;61.38
48630;BME280;34426;52.180;4.462;2024-01-16T12:23:02;100859.28;;;3.63;62.22
48630;BME280;34426;52.180;4.462;2024-01-16T12:25:28;100856.31;;;3.58;62.19
48630;BME280;34426;52.180;4.462;2024-01-16T12:27:55;100859.56;;;3.49;62.40
48630;BME280;34426;52.180;4.462;2024-01-16T12:30:21;100854.66;;;3.51;60.91
48630;BME280;34426;52.180;4.462;2024-01-16T12:32:46;100855.03;;;3.61;61.42
48630;BME280;34426;52.180;4.462;2024-01-16T12:35:19;100853.34;;;3.60;61.86
48630;BME280;34426;52.180;4.462;2024-01-16T12:37:49;100857.13;;;3.65;60.58
48630;BME280;34426;52.180;4.462;2024-01-16T12:40:22;100844.16;;;3.66;61.20
48630;BME280;34426;52.180;4.462;2024-01-16T12:42:47;100849.47;;;3.67;61.19
48630;BME280;34426;52.180;4.462;2024-01-16T12:45:13;100847.41;;;3.56;60.81
48630;BME280;34426;52.180;4.462;2024-01-16T12:47:39;100849.50;;;3.61;62.70
48630;BME280;34426;52.180;4.462;2024-01-16T12:50:06;100837.09;;;3.70;62.49
48630;BME280;34426;52.180;4.462;2024-01-16T12:52:33;100831.56;;;3.70;62.32
48630;BME280;34426;52.180;4.462;2024-01-16T12:54:59;100833.53;;;3.63;60.55